LGSR

Details ICAO LGSR (JTR)
Name SANTORINI
Region Greece
Timezone Europe/Athens (UTC+2.0)
Plans Departing 130
Arriving 216
Stats Elevation 127 ft / 39 m (AMSL)
Location 36.398949° 25.478507°
Runways 2
Magnetic Variation 4.513° E
Sunrise 2017-12-18 05:25:39 UTC / 2017-12-18 07:25:39 Local
Sunset 2017-12-18 15:06:23 UTC / 2017-12-18 17:06:23 Local
Advertisement - Login to hide

Runways

ID Width Length Bearing (true) Bearing (mag) Surface Threshold Offset Overrun Length
16L 98 ft / 30 m 6,978 ft / 2,127 m 159.53° 155.02° Asphalt 0 ft / 0 m 909 ft / 277 m
16R 98 ft / 30 m 6,969 ft / 2,124 m 159.56° 155.05° Asphalt 0 ft / 0 m 420 ft / 128 m
34L 98 ft / 30 m 6,969 ft / 2,124 m 339.56° 335.05° Asphalt 0 ft / 0 m 0 ft / 0 m
34R 98 ft / 30 m 6,978 ft / 2,127 m 339.54° 335.03° Asphalt 0 ft / 0 m 0 ft / 0 m

Map

Weather


0- 5 10 15 20 25 30 35+ Temperature / ° C

Clouds and Precipitation
Forecast for 2017-12-18 18:00 UTC. Updated 2 hours ago

Ground ~20,000 ft ~40,000 ft Winds

METAR

LGSR 181850Z AUTO 22016KT //// // ////// 15/09 Q1017 RE//

TAF

TAF LGSR 181700Z 1818/1918 26012G22KT 9999 FEW020 SCT030 PROB40 1818/1821 8000 RA FEW020 BKN030 PROB30 TEMPO 1818/1819 5000 TSRA FEW018CB BKN020 BECMG 1901/1903 33012KT

Frequencies

Tower 118.05 MHz TWR
Approach 118.05 MHz APP
Tower 122.10 MHz TWR
Approach 122.10 MHz APP
Warning: Do not use this data for real-world aviation or navigation. No guarantee of current accuracy is given.